sensor_id;sensor_type;location;lat;lon;timestamp;P1;durP1;ratioP1;P2;durP2;ratioP2
84523;SDS011;74765;44.538;18.668;2024-02-16T00:00:17;118.88;;;50.92;;
84523;SDS011;74765;44.538;18.668;2024-02-16T00:02:44;104.35;;;46.05;;
84523;SDS011;74765;44.538;18.668;2024-02-16T00:05:11;103.80;;;43.70;;
84523;SDS011;74765;44.538;18.668;2024-02-16T00:07:37;115.72;;;48.47;;
84523;SDS011;74765;44.538;18.668;2024-02-16T00:10:07;109.30;;;48.03;;
84523;SDS011;74765;44.538;18.668;2024-02-16T00:12:37;122.68;;;52.78;;
84523;SDS011;74765;44.538;18.668;2024-02-16T00:15:05;120.18;;;52.00;;
84523;SDS011;74765;44.538;18.668;2024-02-16T00:17:32;143.38;;;57.13;;
84523;SDS011;74765;44.538;18.668;2024-02-16T00:19:58;191.65;;;71.82;;
84523;SDS011;74765;44.538;18.668;2024-02-16T00:22:24;142.45;;;60.55;;
84523;SDS011;74765;44.538;18.668;2024-02-16T00:24:51;152.15;;;62.97;;
84523;SDS011;74765;44.538;18.668;2024-02-16T00:27:17;138.77;;;59.10;;
84523;SDS011;74765;44.538;18.668;2024-02-16T00:29:43;158.23;;;63.47;;
84523;SDS011;74765;44.538;18.668;2024-02-16T00:32:11;158.13;;;67.03;;
84523;SDS011;74765;44.538;18.668;2024-02-16T00:34:38;164.38;;;65.72;;
84523;SDS011;74765;44.538;18.668;2024-02-16T00:37:04;162.77;;;67.15;;
84523;SDS011;74765;44.538;18.668;2024-02-16T00:39:35;143.07;;;57.63;;
84523;SDS011;74765;44.538;18.668;2024-02-16T00:42:02;146.48;;;62.50;;
84523;SDS011;74765;44.538;18.668;2024-02-16T00:44:28;145.02;;;61.95;;
84523;SDS011;74765;44.538;18.668;2024-02-16T00:46:54;142.70;;;59.10;;
84523;SDS011;74765;44.538;18.668;2024-02-16T00:49:20;133.52;;;54.42;;
84523;SDS011;74765;44.538;18.668;2024-02-16T00:51:45;120.68;;;51.47;;
84523;SDS011;74765;44.538;18.668;2024-02-16T00:54:11;112.32;;;46.10;;
84523;SDS011;74765;44.538;18.668;2024-02-16T00:56:37;111.38;;;46.85;;
84523;SDS011;74765;44.538;18.668;2024-02-16T00:59:04;118.32;;;47.88;;
84523;SDS011;74765;44.538;18.668;2024-02-16T01:01:30;123.05;;;49.58;;
84523;SDS011;74765;44.538;18.668;2024-02-16T01:03:56;136.32;;;57.60;;
84523;SDS011;74765;44.538;18.668;2024-02-16T01:06:22;129.35;;;52.63;;
84523;SDS011;74765;44.538;18.668;2024-02-16T01:08:47;131.25;;;53.63;;
84523;SDS011;74765;44.538;18.668;2024-02-16T01:11:13;144.23;;;56.92;;
84523;SDS011;74765;44.538;18.668;2024-02-16T01:13:39;135.73;;;55.15;;
84523;SDS011;74765;44.538;18.668;2024-02-16T01:16:05;124.35;;;52.90;;
84523;SDS011;74765;44.538;18.668;2024-02-16T01:18:31;101.82;;;44.10;;
84523;SDS011;74765;44.538;18.668;2024-02-16T01:20:58;116.38;;;46.75;;
84523;SDS011;74765;44.538;18.668;2024-02-16T01:23:24;111.72;;;47.30;;
84523;SDS011;74765;44.538;18.668;2024-02-16T01:25:50;90.22;;;40.83;;
84523;SDS011;74765;44.538;18.668;2024-02-16T01:28:16;104.90;;;43.33;;
84523;SDS011;74765;44.538;18.668;2024-02-16T01:30:42;102.40;;;44.15;;
84523;SDS011;74765;44.538;18.668;2024-02-16T01:33:07;105.20;;;44.90;;
84523;SDS011;74765;44.538;18.668;2024-02-16T01:35:33;92.40;;;44.20;;
84523;SDS011;74765;44.538;18.668;2024-02-16T01:37:59;100.72;;;44.75;;
84523;SDS011;74765;44.538;18.668;2024-02-16T01:40:29;90.20;;;41.17;;
84523;SDS011;74765;44.538;18.668;2024-02-16T01:42:55;96.30;;;43.97;;
84523;SDS011;74765;44.538;18.668;2024-02-16T01:45:21;94.30;;;42.10;;
84523;SDS011;74765;44.538;18.668;2024-02-16T01:47:47;91.10;;;39.22;;
84523;SDS011;74765;44.538;18.668;2024-02-16T01:50:15;96.32;;;40.92;;
84523;SDS011;74765;44.538;18.668;2024-02-16T01:52:43;112.00;;;48.17;;
84523;SDS011;74765;44.538;18.668;2024-02-16T01:55:09;103.43;;;43.42;;
84523;SDS011;74765;44.538;18.668;2024-02-16T01:57:38;93.72;;;41.95;;
84523;SDS011;74765;44.538;18.668;2024-02-16T02:00:05;90.43;;;42.23;;
84523;SDS011;74765;44.538;18.668;2024-02-16T02:02:34;91.32;;;41.00;;
84523;SDS011;74765;44.538;18.668;2024-02-16T02:05:01;89.85;;;40.55;;
84523;SDS011;74765;44.538;18.668;2024-02-16T02:07:27;91.25;;;42.38;;
84523;SDS011;74765;44.538;18.668;2024-02-16T02:09:53;91.50;;;41.30;;
84523;SDS011;74765;44.538;18.668;2024-02-16T02:12:19;89.53;;;39.88;;
84523;SDS011;74765;44.538;18.668;2024-02-16T02:14:45;89.22;;;40.75;;
84523;SDS011;74765;44.538;18.668;2024-02-16T02:17:12;99.80;;;42.63;;
84523;SDS011;74765;44.538;18.668;2024-02-16T02:19:38;101.65;;;43.95;;
84523;SDS011;74765;44.538;18.668;2024-02-16T02:22:04;96.18;;;43.05;;
84523;SDS011;74765;44.538;18.668;2024-02-16T02:24:30;96.32;;;42.38;;
84523;SDS011;74765;44.538;18.668;2024-02-16T02:26:56;86.22;;;39.85;;
84523;SDS011;74765;44.538;18.668;2024-02-16T02:29:22;88.65;;;39.47;;
84523;SDS011;74765;44.538;18.668;2024-02-16T02:31:48;111.40;;;48.08;;
84523;SDS011;74765;44.538;18.668;2024-02-16T02:34:14;121.05;;;51.05;;
84523;SDS011;74765;44.538;18.668;2024-02-16T02:36:40;108.70;;;49.33;;
84523;SDS011;74765;44.538;18.668;2024-02-16T02:39:06;109.30;;;49.17;;
84523;SDS011;74765;44.538;18.668;2024-02-16T02:41:32;122.35;;;48.33;;
84523;SDS011;74765;44.538;18.668;2024-02-16T02:43:58;104.45;;;48.83;;
84523;SDS011;74765;44.538;18.668;2024-02-16T02:46:23;105.30;;;46.75;;
84523;SDS011;74765;44.538;18.668;2024-02-16T02:48:50;91.20;;;40.53;;
84523;SDS011;74765;44.538;18.668;2024-02-16T02:51:16;92.25;;;40.60;;
84523;SDS011;74765;44.538;18.668;2024-02-16T02:53:42;95.03;;;42.33;;
84523;SDS011;74765;44.538;18.668;2024-02-16T02:56:08;87.68;;;41.65;;
84523;SDS011;74765;44.538;18.668;2024-02-16T02:58:34;97.28;;;42.35;;
84523;SDS011;74765;44.538;18.668;2024-02-16T03:01:00;94.78;;;41.92;;
84523;SDS011;74765;44.538;18.668;2024-02-16T03:03:25;100.82;;;43.58;;
84523;SDS011;74765;44.538;18.668;2024-02-16T03:05:52;90.85;;;41.35;;
84523;SDS011;74765;44.538;18.668;2024-02-16T03:08:18;82.55;;;39.95;;
84523;SDS011;74765;44.538;18.668;2024-02-16T03:10:45;79.65;;;37.55;;
84523;SDS011;74765;44.538;18.668;2024-02-16T03:13:10;69.70;;;34.72;;
84523;SDS011;74765;44.538;18.668;2024-02-16T03:15:38;74.45;;;36.15;;
84523;SDS011;74765;44.538;18.668;2024-02-16T03:18:05;71.35;;;34.10;;
84523;SDS011;74765;44.538;18.668;2024-02-16T03:20:34;66.78;;;32.72;;
84523;SDS011;74765;44.538;18.668;2024-02-16T03:23:00;70.60;;;33.10;;
84523;SDS011;74765;44.538;18.668;2024-02-16T03:25:26;71.45;;;34.05;;
84523;SDS011;74765;44.538;18.668;2024-02-16T03:27:52;73.22;;;37.53;;
84523;SDS011;74765;44.538;18.668;2024-02-16T03:30:20;83.00;;;37.42;;
84523;SDS011;74765;44.538;18.668;2024-02-16T03:32:50;79.88;;;38.22;;
84523;SDS011;74765;44.538;18.668;2024-02-16T03:35:16;82.30;;;38.77;;
84523;SDS011;74765;44.538;18.668;2024-02-16T03:37:42;81.30;;;38.58;;
84523;SDS011;74765;44.538;18.668;2024-02-16T03:40:08;83.38;;;37.17;;
84523;SDS011;74765;44.538;18.668;2024-02-16T03:42:35;67.68;;;34.20;;
84523;SDS011;74765;44.538;18.668;2024-02-16T03:45:02;70.28;;;35.83;;
84523;SDS011;74765;44.538;18.668;2024-02-16T03:47:28;78.75;;;34.95;;
84523;SDS011;74765;44.538;18.668;2024-02-16T03:49:53;66.65;;;33.33;;
84523;SDS011;74765;44.538;18.668;2024-02-16T03:52:19;63.22;;;31.23;;
84523;SDS011;74765;44.538;18.668;2024-02-16T03:54:45;63.88;;;33.08;;
84523;SDS011;74765;44.538;18.668;2024-02-16T03:57:13;66.55;;;31.40;;
84523;SDS011;74765;44.538;18.668;2024-02-16T03:59:45;70.72;;;34.42;;
84523;SDS011;74765;44.538;18.668;2024-02-16T04:02:11;69.10;;;31.08;;
84523;SDS011;74765;44.538;18.668;2024-02-16T04:04:40;68.80;;;32.53;;
84523;SDS011;74765;44.538;18.668;2024-02-16T04:07:07;68.05;;;31.20;;
84523;SDS011;74765;44.538;18.668;2024-02-16T04:09:33;73.50;;;36.13;;
84523;SDS011;74765;44.538;18.668;2024-02-16T04:12:00;70.90;;;34.40;;
84523;SDS011;74765;44.538;18.668;2024-02-16T04:14:29;72.03;;;34.85;;
84523;SDS011;74765;44.538;18.668;2024-02-16T04:16:59;75.78;;;35.30;;
84523;SDS011;74765;44.538;18.668;2024-02-16T04:19:28;64.32;;;33.55;;
84523;SDS011;74765;44.538;18.668;2024-02-16T04:21:54;75.05;;;34.58;;
84523;SDS011;74765;44.538;18.668;2024-02-16T04:24:20;72.30;;;33.67;;
84523;SDS011;74765;44.538;18.668;2024-02-16T04:26:46;76.88;;;36.03;;
84523;SDS011;74765;44.538;18.668;2024-02-16T04:29:12;72.18;;;32.88;;
84523;SDS011;74765;44.538;18.668;2024-02-16T04:31:39;67.78;;;32.75;;
84523;SDS011;74765;44.538;18.668;2024-02-16T04:34:05;60.50;;;29.83;;
84523;SDS011;74765;44.538;18.668;2024-02-16T04:36:31;72.60;;;32.65;;
84523;SDS011;74765;44.538;18.668;2024-02-16T04:38:57;82.10;;;34.65;;
84523;SDS011;74765;44.538;18.668;2024-02-16T04:41:23;64.35;;;30.85;;
84523;SDS011;74765;44.538;18.668;2024-02-16T04:43:49;64.55;;;32.40;;
84523;SDS011;74765;44.538;18.668;2024-02-16T04:46:17;76.07;;;35.65;;
84523;SDS011;74765;44.538;18.668;2024-02-16T04:48:43;71.60;;;34.50;;
84523;SDS011;74765;44.538;18.668;2024-02-16T04:51:09;76.13;;;34.42;;
84523;SDS011;74765;44.538;18.668;2024-02-16T04:53:36;79.00;;;36.25;;
84523;SDS011;74765;44.538;18.668;2024-02-16T04:56:01;81.22;;;36.40;;
84523;SDS011;74765;44.538;18.668;2024-02-16T04:58:27;81.93;;;35.15;;
84523;SDS011;74765;44.538;18.668;2024-02-16T05:00:53;72.10;;;33.22;;
84523;SDS011;74765;44.538;18.668;2024-02-16T05:03:19;71.65;;;33.88;;
84523;SDS011;74765;44.538;18.668;2024-02-16T05:05:45;74.50;;;35.22;;
84523;SDS011;74765;44.538;18.668;2024-02-16T05:08:11;79.80;;;36.30;;
84523;SDS011;74765;44.538;18.668;2024-02-16T05:10:37;69.88;;;32.70;;
84523;SDS011;74765;44.538;18.668;2024-02-16T05:13:03;81.72;;;36.08;;
84523;SDS011;74765;44.538;18.668;2024-02-16T05:15:30;97.25;;;41.65;;
84523;SDS011;74765;44.538;18.668;2024-02-16T05:17:56;91.18;;;38.60;;
84523;SDS011;74765;44.538;18.668;2024-02-16T05:20:23;87.85;;;38.05;;
84523;SDS011;74765;44.538;18.668;2024-02-16T05:22:49;88.45;;;38.75;;
84523;SDS011;74765;44.538;18.668;2024-02-16T05:25:15;98.88;;;44.33;;
84523;SDS011;74765;44.538;18.668;2024-02-16T05:27:43;104.38;;;42.67;;
84523;SDS011;74765;44.538;18.668;2024-02-16T05:30:10;90.65;;;39.78;;
84523;SDS011;74765;44.538;18.668;2024-02-16T05:32:38;99.88;;;43.33;;
84523;SDS011;74765;44.538;18.668;2024-02-16T05:35:04;91.78;;;40.75;;
84523;SDS011;74765;44.538;18.668;2024-02-16T05:37:40;99.15;;;42.75;;
84523;SDS011;74765;44.538;18.668;2024-02-16T05:40:09;98.35;;;42.72;;
84523;SDS011;74765;44.538;18.668;2024-02-16T05:42:52;65.30;;;33.15;;
84523;SDS011;74765;44.538;18.668;2024-02-16T05:45:18;66.57;;;32.75;;
84523;SDS011;74765;44.538;18.668;2024-02-16T05:47:46;89.65;;;38.97;;
84523;SDS011;74765;44.538;18.668;2024-02-16T05:50:13;92.68;;;40.88;;
84523;SDS011;74765;44.538;18.668;2024-02-16T05:52:40;91.22;;;37.97;;
84523;SDS011;74765;44.538;18.668;2024-02-16T05:55:07;122.15;;;43.25;;
84523;SDS011;74765;44.538;18.668;2024-02-16T05:57:34;158.77;;;52.55;;
84523;SDS011;74765;44.538;18.668;2024-02-16T06:00:00;116.60;;;46.92;;
84523;SDS011;74765;44.538;18.668;2024-02-16T06:02:30;122.72;;;48.28;;
84523;SDS011;74765;44.538;18.668;2024-02-16T06:05:00;167.32;;;57.20;;
84523;SDS011;74765;44.538;18.668;2024-02-16T06:07:26;110.43;;;43.47;;
84523;SDS011;74765;44.538;18.668;2024-02-16T06:09:52;133.68;;;50.80;;
84523;SDS011;74765;44.538;18.668;2024-02-16T06:12:19;92.32;;;40.58;;
84523;SDS011;74765;44.538;18.668;2024-02-16T06:14:45;104.38;;;48.67;;
84523;SDS011;74765;44.538;18.668;2024-02-16T06:17:16;93.32;;;43.38;;
84523;SDS011;74765;44.538;18.668;2024-02-16T06:19:44;87.38;;;36.75;;
84523;SDS011;74765;44.538;18.668;2024-02-16T06:22:10;82.82;;;39.70;;
84523;SDS011;74765;44.538;18.668;2024-02-16T06:24:37;93.68;;;46.80;;
84523;SDS011;74765;44.538;18.668;2024-02-16T06:27:06;86.75;;;42.72;;
84523;SDS011;74765;44.538;18.668;2024-02-16T06:29:34;109.93;;;48.15;;
84523;SDS011;74765;44.538;18.668;2024-02-16T06:32:00;95.80;;;44.13;;
84523;SDS011;74765;44.538;18.668;2024-02-16T06:34:27;98.05;;;45.17;;
84523;SDS011;74765;44.538;18.668;2024-02-16T06:36:55;95.90;;;44.90;;
84523;SDS011;74765;44.538;18.668;2024-02-16T06:39:21;85.22;;;41.67;;
84523;SDS011;74765;44.538;18.668;2024-02-16T06:41:47;90.45;;;41.72;;
84523;SDS011;74765;44.538;18.668;2024-02-16T06:44:16;95.75;;;45.53;;
84523;SDS011;74765;44.538;18.668;2024-02-16T06:46:43;95.07;;;46.28;;
84523;SDS011;74765;44.538;18.668;2024-02-16T06:49:14;93.22;;;44.53;;
84523;SDS011;74765;44.538;18.668;2024-02-16T06:51:40;96.07;;;44.47;;
84523;SDS011;74765;44.538;18.668;2024-02-16T06:54:06;85.55;;;40.90;;
84523;SDS011;74765;44.538;18.668;2024-02-16T06:56:32;61.65;;;32.38;;
84523;SDS011;74765;44.538;18.668;2024-02-16T06:58:58;68.32;;;34.67;;
84523;SDS011;74765;44.538;18.668;2024-02-16T07:01:24;66.35;;;36.03;;
84523;SDS011;74765;44.538;18.668;2024-02-16T07:03:52;66.63;;;35.63;;
84523;SDS011;74765;44.538;18.668;2024-02-16T07:06:18;60.25;;;33.45;;
84523;SDS011;74765;44.538;18.668;2024-02-16T07:08:44;65.43;;;36.70;;
84523;SDS011;74765;44.538;18.668;2024-02-16T07:11:10;68.45;;;37.00;;
84523;SDS011;74765;44.538;18.668;2024-02-16T07:13:39;79.68;;;41.88;;
84523;SDS011;74765;44.538;18.668;2024-02-16T07:16:08;80.35;;;41.20;;
84523;SDS011;74765;44.538;18.668;2024-02-16T07:19:08;60.13;;;31.95;;
84523;SDS011;74765;44.538;18.668;2024-02-16T07:21:54;64.03;;;37.13;;
84523;SDS011;74765;44.538;18.668;2024-02-16T07:24:49;67.95;;;39.17;;
84523;SDS011;74765;44.538;18.668;2024-02-16T07:27:15;67.38;;;37.88;;
84523;SDS011;74765;44.538;18.668;2024-02-16T07:29:42;199.82;;;120.22;;
84523;SDS011;74765;44.538;18.668;2024-02-16T07:32:08;224.32;;;130.05;;
84523;SDS011;74765;44.538;18.668;2024-02-16T07:34:34;201.98;;;115.22;;
84523;SDS011;74765;44.538;18.668;2024-02-16T07:37:10;242.43;;;136.77;;
84523;SDS011;74765;44.538;18.668;2024-02-16T07:39:36;208.65;;;120.35;;
84523;SDS011;74765;44.538;18.668;2024-02-16T07:42:02;221.07;;;122.70;;
84523;SDS011;74765;44.538;18.668;2024-02-16T07:44:37;269.58;;;140.98;;
84523;SDS011;74765;44.538;18.668;2024-02-16T07:49:32;229.50;;;120.05;;
84523;SDS011;74765;44.538;18.668;2024-02-16T07:51:58;229.00;;;120.35;;
84523;SDS011;74765;44.538;18.668;2024-02-16T07:54:24;229.82;;;119.53;;
84523;SDS011;74765;44.538;18.668;2024-02-16T07:56:50;220.07;;;117.03;;
84523;SDS011;74765;44.538;18.668;2024-02-16T07:59:16;212.30;;;110.82;;
84523;SDS011;74765;44.538;18.668;2024-02-16T08:01:49;219.05;;;113.53;;
84523;SDS011;74765;44.538;18.668;2024-02-16T08:04:19;213.43;;;112.60;;
84523;SDS011;74765;44.538;18.668;2024-02-16T08:06:45;188.50;;;101.63;;
84523;SDS011;74765;44.538;18.668;2024-02-16T08:09:12;160.52;;;89.15;;
84523;SDS011;74765;44.538;18.668;2024-02-16T08:11:39;154.40;;;86.15;;
84523;SDS011;74765;44.538;18.668;2024-02-16T08:14:07;142.35;;;76.93;;
84523;SDS011;74765;44.538;18.668;2024-02-16T08:16:34;128.52;;;74.22;;
84523;SDS011;74765;44.538;18.668;2024-02-16T08:19:00;130.60;;;74.25;;
84523;SDS011;74765;44.538;18.668;2024-02-16T08:21:25;121.90;;;68.68;;
84523;SDS011;74765;44.538;18.668;2024-02-16T08:23:51;124.57;;;68.75;;
84523;SDS011;74765;44.538;18.668;2024-02-16T08:26:17;134.60;;;75.20;;
84523;SDS011;74765;44.538;18.668;2024-02-16T08:28:43;125.45;;;71.78;;
84523;SDS011;74765;44.538;18.668;2024-02-16T08:31:14;132.20;;;79.45;;
84523;SDS011;74765;44.538;18.668;2024-02-16T08:33:41;87.55;;;51.85;;
84523;SDS011;74765;44.538;18.668;2024-02-16T08:36:07;87.88;;;50.60;;
84523;SDS011;74765;44.538;18.668;2024-02-16T08:38:33;91.75;;;52.53;;
84523;SDS011;74765;44.538;18.668;2024-02-16T08:40:58;85.13;;;48.78;;
84523;SDS011;74765;44.538;18.668;2024-02-16T08:43:25;88.13;;;50.55;;
84523;SDS011;74765;44.538;18.668;2024-02-16T08:45:51;88.22;;;52.05;;
84523;SDS011;74765;44.538;18.668;2024-02-16T08:48:17;120.85;;;65.00;;
84523;SDS011;74765;44.538;18.668;2024-02-16T08:50:42;106.70;;;59.10;;
84523;SDS011;74765;44.538;18.668;2024-02-16T08:53:08;99.50;;;59.08;;
84523;SDS011;74765;44.538;18.668;2024-02-16T08:55:35;102.88;;;56.70;;
84523;SDS011;74765;44.538;18.668;2024-02-16T08:58:07;103.18;;;59.95;;
84523;SDS011;74765;44.538;18.668;2024-02-16T09:00:34;85.07;;;48.97;;
84523;SDS011;74765;44.538;18.668;2024-02-16T09:03:00;75.10;;;46.60;;
84523;SDS011;74765;44.538;18.668;2024-02-16T09:05:28;72.37;;;45.77;;
84523;SDS011;74765;44.538;18.668;2024-02-16T09:07:54;98.78;;;53.75;;
84523;SDS011;74765;44.538;18.668;2024-02-16T09:10:23;88.85;;;51.05;;
84523;SDS011;74765;44.538;18.668;2024-02-16T09:12:51;79.30;;;47.67;;
84523;SDS011;74765;44.538;18.668;2024-02-16T09:15:27;87.13;;;49.38;;
84523;SDS011;74765;44.538;18.668;2024-02-16T09:17:53;101.07;;;53.42;;
84523;SDS011;74765;44.538;18.668;2024-02-16T09:20:19;108.85;;;56.33;;
84523;SDS011;74765;44.538;18.668;2024-02-16T09:22:48;73.40;;;42.60;;
84523;SDS011;74765;44.538;18.668;2024-02-16T09:25:14;82.22;;;47.22;;
84523;SDS011;74765;44.538;18.668;2024-02-16T09:27:40;72.10;;;41.97;;
84523;SDS011;74765;44.538;18.668;2024-02-16T09:30:10;65.63;;;39.65;;
84523;SDS011;74765;44.538;18.668;2024-02-16T09:32:40;64.90;;;35.53;;
84523;SDS011;74765;44.538;18.668;2024-02-16T09:35:08;66.70;;;40.08;;
84523;SDS011;74765;44.538;18.668;2024-02-16T09:37:34;84.45;;;47.42;;
84523;SDS011;74765;44.538;18.668;2024-02-16T09:40:01;65.13;;;41.75;;
84523;SDS011;74765;44.538;18.668;2024-02-16T09:42:29;82.10;;;42.35;;
84523;SDS011;74765;44.538;18.668;2024-02-16T09:44:55;68.28;;;40.33;;
84523;SDS011;74765;44.538;18.668;2024-02-16T09:47:21;77.82;;;43.80;;
84523;SDS011;74765;44.538;18.668;2024-02-16T09:49:48;74.40;;;43.90;;
84523;SDS011;74765;44.538;18.668;2024-02-16T09:52:14;69.15;;;43.15;;
84523;SDS011;74765;44.538;18.668;2024-02-16T09:54:40;74.18;;;40.97;;
84523;SDS011;74765;44.538;18.668;2024-02-16T09:57:06;74.43;;;41.85;;
84523;SDS011;74765;44.538;18.668;2024-02-16T09:59:32;76.57;;;48.50;;
84523;SDS011;74765;44.538;18.668;2024-02-16T10:02:01;73.03;;;44.90;;
84523;SDS011;74765;44.538;18.668;2024-02-16T10:04:28;64.82;;;40.42;;
84523;SDS011;74765;44.538;18.668;2024-02-16T10:06:54;64.28;;;41.72;;
84523;SDS011;74765;44.538;18.668;2024-02-16T10:09:26;60.33;;;39.05;;
84523;SDS011;74765;44.538;18.668;2024-02-16T10:11:56;66.15;;;40.35;;
84523;SDS011;74765;44.538;18.668;2024-02-16T10:14:22;62.20;;;37.70;;
84523;SDS011;74765;44.538;18.668;2024-02-16T10:17:02;58.80;;;36.38;;
84523;SDS011;74765;44.538;18.668;2024-02-16T10:19:30;60.72;;;38.28;;
84523;SDS011;74765;44.538;18.668;2024-02-16T10:22:05;50.97;;;33.33;;
84523;SDS011;74765;44.538;18.668;2024-02-16T10:24:34;53.88;;;34.65;;
84523;SDS011;74765;44.538;18.668;2024-02-16T10:27:00;50.72;;;30.88;;
84523;SDS011;74765;44.538;18.668;2024-02-16T10:29:26;51.03;;;32.47;;
84523;SDS011;74765;44.538;18.668;2024-02-16T10:31:52;49.90;;;32.30;;
84523;SDS011;74765;44.538;18.668;2024-02-16T10:34:18;49.03;;;31.90;;
84523;SDS011;74765;44.538;18.668;2024-02-16T10:36:47;43.88;;;27.42;;
84523;SDS011;74765;44.538;18.668;2024-02-16T10:39:14;45.45;;;27.60;;
84523;SDS011;74765;44.538;18.668;2024-02-16T10:41:41;40.83;;;24.88;;
84523;SDS011;74765;44.538;18.668;2024-02-16T10:44:07;37.65;;;23.95;;
84523;SDS011;74765;44.538;18.668;2024-02-16T10:46:33;42.67;;;23.08;;
84523;SDS011;74765;44.538;18.668;2024-02-16T10:48:59;66.57;;;33.72;;
84523;SDS011;74765;44.538;18.668;2024-02-16T10:51:46;39.80;;;25.77;;
84523;SDS011;74765;44.538;18.668;2024-02-16T10:54:15;39.35;;;20.88;;
84523;SDS011;74765;44.538;18.668;2024-02-16T10:56:47;40.72;;;23.52;;
84523;SDS011;74765;44.538;18.668;2024-02-16T10:59:16;35.20;;;20.65;;
84523;SDS011;74765;44.538;18.668;2024-02-16T11:01:42;31.23;;;18.73;;
84523;SDS011;74765;44.538;18.668;2024-02-16T11:04:18;29.38;;;17.98;;
84523;SDS011;74765;44.538;18.668;2024-02-16T11:06:48;24.75;;;12.10;;
84523;SDS011;74765;44.538;18.668;2024-02-16T11:09:27;27.53;;;17.00;;
84523;SDS011;74765;44.538;18.668;2024-02-16T11:11:55;33.00;;;18.75;;
84523;SDS011;74765;44.538;18.668;2024-02-16T11:14:38;32.55;;;18.15;;
84523;SDS011;74765;44.538;18.668;2024-02-16T11:17:11;35.58;;;18.70;;
84523;SDS011;74765;44.538;18.668;2024-02-16T11:19:44;31.00;;;17.70;;
84523;SDS011;74765;44.538;18.668;2024-02-16T11:22:16;26.77;;;13.20;;
84523;SDS011;74765;44.538;18.668;2024-02-16T11:24:44;25.83;;;12.60;;
84523;SDS011;74765;44.538;18.668;2024-02-16T11:27:13;21.73;;;10.93;;
84523;SDS011;74765;44.538;18.668;2024-02-16T11:29:44;14.90;;;8.10;;
84523;SDS011;74765;44.538;18.668;2024-02-16T11:32:11;17.73;;;10.10;;
84523;SDS011;74765;44.538;18.668;2024-02-16T11:34:37;15.05;;;9.85;;
84523;SDS011;74765;44.538;18.668;2024-02-16T11:37:06;19.38;;;10.75;;
84523;SDS011;74765;44.538;18.668;2024-02-16T11:39:41;30.52;;;10.40;;
84523;SDS011;74765;44.538;18.668;2024-02-16T11:42:30;19.13;;;10.20;;
84523;SDS011;74765;44.538;18.668;2024-02-16T11:44:55;17.75;;;9.70;;
84523;SDS011;74765;44.538;18.668;2024-02-16T11:47:22;12.82;;;7.50;;
84523;SDS011;74765;44.538;18.668;2024-02-16T11:50:04;10.13;;;4.90;;
84523;SDS011;74765;44.538;18.668;2024-02-16T11:54:57;5.68;;;3.70;;
84523;SDS011;74765;44.538;18.668;2024-02-16T11:57:26;7.82;;;4.40;;
84523;SDS011;74765;44.538;18.668;2024-02-16T11:59:53;6.20;;;3.65;;
84523;SDS011;74765;44.538;18.668;2024-02-16T12:02:19;9.93;;;5.63;;
84523;SDS011;74765;44.538;18.668;2024-02-16T12:04:46;5.85;;;3.10;;
84523;SDS011;74765;44.538;18.668;2024-02-16T12:07:12;6.68;;;3.10;;
84523;SDS011;74765;44.538;18.668;2024-02-16T12:09:40;5.35;;;3.15;;
84523;SDS011;74765;44.538;18.668;2024-02-16T12:12:06;4.60;;;2.80;;
84523;SDS011;74765;44.538;18.668;2024-02-16T12:14:32;1.45;;;1.17;;
84523;SDS011;74765;44.538;18.668;2024-02-16T12:16:58;2.40;;;1.40;;
84523;SDS011;74765;44.538;18.668;2024-02-16T12:19:25;3.30;;;1.85;;
84523;SDS011;74765;44.538;18.668;2024-02-16T12:21:51;2.38;;;1.52;;
84523;SDS011;74765;44.538;18.668;2024-02-16T12:24:18;2.97;;;2.10;;
84523;SDS011;74765;44.538;18.668;2024-02-16T12:26:45;2.83;;;2.05;;
84523;SDS011;74765;44.538;18.668;2024-02-16T12:29:11;2.78;;;1.60;;
84523;SDS011;74765;44.538;18.668;2024-02-16T12:31:41;3.42;;;1.60;;
84523;SDS011;74765;44.538;18.668;2024-02-16T12:34:11;1.77;;;1.40;;
84523;SDS011;74765;44.538;18.668;2024-02-16T12:36:43;2.92;;;1.95;;
84523;SDS011;74765;44.538;18.668;2024-02-16T12:39:11;2.80;;;1.92;;
84523;SDS011;74765;44.538;18.668;2024-02-16T12:41:39;4.40;;;2.45;;
84523;SDS011;74765;44.538;18.668;2024-02-16T12:44:11;6.57;;;3.40;;
84523;SDS011;74765;44.538;18.668;2024-02-16T12:46:36;5.22;;;3.05;;
84523;SDS011;74765;44.538;18.668;2024-02-16T12:49:04;5.00;;;2.50;;
84523;SDS011;74765;44.538;18.668;2024-02-16T12:51:33;4.68;;;2.50;;
84523;SDS011;74765;44.538;18.668;2024-02-16T12:54:00;7.53;;;3.58;;
84523;SDS011;74765;44.538;18.668;2024-02-16T12:56:29;7.22;;;3.50;;
84523;SDS011;74765;44.538;18.668;2024-02-16T12:58:55;2.70;;;1.90;;
84523;SDS011;74765;44.538;18.668;2024-02-16T13:01:22;5.90;;;2.90;;
84523;SDS011;74765;44.538;18.668;2024-02-16T13:03:48;10.00;;;4.18;;
84523;SDS011;74765;44.538;18.668;2024-02-16T13:06:15;3.13;;;2.10;;
84523;SDS011;74765;44.538;18.668;2024-02-16T13:08:41;8.00;;;3.13;;
84523;SDS011;74765;44.538;18.668;2024-02-16T13:11:12;5.40;;;2.45;;
84523;SDS011;74765;44.538;18.668;2024-02-16T13:13:38;5.47;;;3.00;;
84523;SDS011;74765;44.538;18.668;2024-02-16T13:16:07;6.50;;;3.30;;
84523;SDS011;74765;44.538;18.668;2024-02-16T13:18:34;4.55;;;2.80;;
84523;SDS011;74765;44.538;18.668;2024-02-16T13:21:00;6.97;;;3.70;;
84523;SDS011;74765;44.538;18.668;2024-02-16T13:23:26;10.07;;;3.30;;
84523;SDS011;74765;44.538;18.668;2024-02-16T13:26:00;7.85;;;3.80;;
84523;SDS011;74765;44.538;18.668;2024-02-16T13:28:32;2.25;;;1.60;;
84523;SDS011;74765;44.538;18.668;2024-02-16T13:31:04;11.95;;;4.97;;
84523;SDS011;74765;44.538;18.668;2024-02-16T13:33:30;4.57;;;2.40;;
84523;SDS011;74765;44.538;18.668;2024-02-16T13:35:56;6.43;;;3.20;;
84523;SDS011;74765;44.538;18.668;2024-02-16T13:38:25;6.22;;;2.70;;
84523;SDS011;74765;44.538;18.668;2024-02-16T13:40:50;6.20;;;3.47;;
84523;SDS011;74765;44.538;18.668;2024-02-16T13:43:17;5.18;;;2.72;;
84523;SDS011;74765;44.538;18.668;2024-02-16T13:45:52;6.65;;;2.97;;
84523;SDS011;74765;44.538;18.668;2024-02-16T13:48:22;7.88;;;3.53;;
84523;SDS011;74765;44.538;18.668;2024-02-16T13:50:48;24.10;;;10.95;;
84523;SDS011;74765;44.538;18.668;2024-02-16T13:53:17;9.05;;;4.40;;
84523;SDS011;74765;44.538;18.668;2024-02-16T13:55:46;9.63;;;5.07;;
84523;SDS011;74765;44.538;18.668;2024-02-16T13:58:16;2.97;;;2.15;;
84523;SDS011;74765;44.538;18.668;2024-02-16T14:00:46;5.80;;;2.90;;
84523;SDS011;74765;44.538;18.668;2024-02-16T14:03:12;8.88;;;4.95;;
84523;SDS011;74765;44.538;18.668;2024-02-16T14:05:43;4.50;;;2.90;;
84523;SDS011;74765;44.538;18.668;2024-02-16T14:08:12;3.13;;;2.22;;
84523;SDS011;74765;44.538;18.668;2024-02-16T14:10:40;4.38;;;2.72;;
84523;SDS011;74765;44.538;18.668;2024-02-16T14:13:06;3.72;;;2.15;;
84523;SDS011;74765;44.538;18.668;2024-02-16T14:15:31;4.40;;;1.83;;